Time;durP1;ratioP1;P1;durP2;ratioP2;P2;SDS_P1;SDS_P2;PMS_P1;PMS_P2;Temp;Humidity;BMP_temperature;BMP_pressure;BME280_temperature;BME280_humidity;BME280_pressure;Samples;Min_cycle;Max_cycle;Signal;HPM_P1;HPM_P2
2021/07/20 00:00:23;;;;;;;38.70;18.50;;;13.30;99.90;;;;;;5095547;28;20381;-75
2021/07/20 00:02:52;;;;;;;28.92;17.20;;;13.30;99.90;;;;;;5095775;28;20016;-75
2021/07/20 00:05:21;;;;;;;38.38;18.75;;;13.30;99.90;;;;;;5095127;28;20069;-75
2021/07/20 00:07:48;;;;;;;37.97;18.60;;;13.30;99.90;;;;;;5094526;28;20024;-75
2021/07/20 00:10:22;;;;;;;34.40;19.20;;;13.40;99.90;;;;;;5095609;28;20027;-75
2021/07/20 00:12:48;;;;;;;31.60;18.58;;;13.40;99.90;;;;;;5094427;28;20055;-75
2021/07/20 00:15:15;;;;;;;35.28;19.95;;;13.40;99.90;;;;;;5093671;28;20388;-75
2021/07/20 00:17:43;;;;;;;33.42;19.05;;;13.40;99.90;;;;;;5095491;28;20047;-75
2021/07/20 00:20:12;;;;;;;35.15;19.23;;;13.50;99.90;;;;;;5077804;28;20028;-76
2021/07/20 00:22:37;;;;;;;33.65;19.17;;;13.50;99.90;;;;;;5093929;28;20382;-76
2021/07/20 00:25:06;;;;;;;35.75;19.67;;;13.50;99.90;;;;;;5093875;28;20099;-75
2021/07/20 00:27:31;;;;;;;38.20;18.95;;;13.60;99.90;;;;;;5095286;28;20028;-75
2021/07/20 00:29:57;;;;;;;31.35;18.92;;;13.60;99.90;;;;;;5094666;28;20073;-76
2021/07/20 00:32:22;;;;;;;34.65;19.13;;;13.60;99.90;;;;;;5094067;28;20035;-75
2021/07/20 00:34:48;;;;;;;35.33;19.65;;;13.70;99.90;;;;;;5093895;28;20016;-75
2021/07/20 00:37:13;;;;;;;40.55;19.27;;;13.70;99.90;;;;;;5093319;28;20462;-75
2021/07/20 00:39:39;;;;;;;31.80;19.67;;;13.70;99.90;;;;;;5094373;28;20040;-76
2021/07/20 00:42:04;;;;;;;44.00;20.45;;;13.70;99.90;;;;;;5095016;28;20119;-75
2021/07/20 00:44:30;;;;;;;40.17;20.58;;;13.80;99.90;;;;;;5093528;28;20028;-76
2021/07/20 00:46:56;;;;;;;44.67;19.88;;;13.80;99.90;;;;;;5093949;28;20020;-75
2021/07/20 00:49:21;;;;;;;34.63;20.08;;;13.90;99.90;;;;;;5094673;28;20024;-75
2021/07/20 00:51:47;;;;;;;38.40;21.10;;;13.80;99.90;;;;;;5094839;28;20353;-76
2021/07/20 00:54:13;;;;;;;36.35;18.83;;;13.90;99.90;;;;;;5093378;28;20027;-76
2021/07/20 00:56:40;;;;;;;35.00;19.55;;;13.90;99.90;;;;;;5093591;28;20035;-76
2021/07/20 00:59:06;;;;;;;36.08;19.65;;;13.90;99.90;;;;;;5094668;28;20039;-76
2021/07/20 01:01:32;;;;;;;36.72;20.20;;;13.90;99.90;;;;;;5094396;28;20020;-76
2021/07/20 01:03:57;;;;;;;38.88;20.08;;;13.90;99.90;;;;;;5094681;28;20532;-76
2021/07/20 01:06:24;;;;;;;37.35;20.20;;;13.90;99.90;;;;;;5094606;28;20101;-76
2021/07/20 01:08:52;;;;;;;37.17;20.33;;;14.00;99.90;;;;;;5092702;28;20030;-75
2021/07/20 01:11:18;;;;;;;37.03;20.48;;;14.00;99.90;;;;;;5093401;28;20020;-76
2021/07/20 01:13:45;;;;;;;37.70;20.15;;;14.00;99.90;;;;;;5094490;28;20039;-76
2021/07/20 01:16:11;;;;;;;32.35;19.67;;;14.00;99.90;;;;;;5093946;28;20457;-76
2021/07/20 01:18:39;;;;;;;35.85;20.55;;;14.00;99.90;;;;;;5094059;28;20051;-75
2021/07/20 01:21:07;;;;;;;37.90;19.05;;;13.90;99.90;;;;;;5094372;28;20509;-76
2021/07/20 01:23:37;;;;;;;34.35;20.17;;;13.90;99.90;;;;;;5094380;28;20017;-76
2021/07/20 01:26:03;;;;;;;36.90;19.98;;;13.90;99.90;;;;;;5094046;28;20039;-76
2021/07/20 01:28:30;;;;;;;34.40;19.98;;;14.00;99.90;;;;;;5094253;28;20055;-75
2021/07/20 01:31:00;;;;;;;40.33;21.40;;;14.00;99.90;;;;;;5094244;28;20119;-76
2021/07/20 01:33:27;;;;;;;30.60;18.80;;;14.00;99.90;;;;;;5092339;28;20025;-76
2021/07/20 01:35:55;;;;;;;32.47;19.08;;;14.10;99.90;;;;;;5093923;28;20372;-76
2021/07/20 01:38:21;;;;;;;37.38;19.40;;;14.10;99.90;;;;;;5092633;28;20504;-77
2021/07/20 01:40:49;;;;;;;35.90;18.88;;;14.10;99.90;;;;;;5093868;28;20027;-76
2021/07/20 01:43:19;;;;;;;32.85;18.73;;;14.10;99.90;;;;;;5094044;28;20566;-76
2021/07/20 01:45:45;;;;;;;27.92;18.48;;;14.10;99.90;;;;;;5094063;28;20458;-76
2021/07/20 01:48:11;;;;;;;31.40;19.55;;;14.10;99.90;;;;;;5094049;28;20073;-76
2021/07/20 01:50:37;;;;;;;31.45;18.50;;;14.20;99.90;;;;;;5093983;28;20032;-76
2021/07/20 01:53:04;;;;;;;32.47;18.70;;;14.20;99.90;;;;;;5094013;28;20465;-76
2021/07/20 01:55:30;;;;;;;30.83;19.02;;;14.20;99.90;;;;;;5093723;28;20429;-76
2021/07/20 01:57:56;;;;;;;30.65;18.05;;;14.20;99.90;;;;;;5093912;28;20032;-76
2021/07/20 02:00:23;;;;;;;30.05;18.42;;;14.20;99.90;;;;;;5092520;28;20374;-76
2021/07/20 02:08:35;;;;;;;28.88;17.55;;;14.10;99.90;;;;;;5093181;28;20431;-76
2021/07/20 02:11:05;;;;;;;33.58;18.50;;;14.10;99.90;;;;;;5093856;28;20027;-76
2021/07/20 02:13:43;;;;;;;32.97;18.38;;;14.10;99.90;;;;;;5092369;28;20023;-76
2021/07/20 02:16:13;;;;;;;35.15;18.25;;;14.00;99.90;;;;;;5093841;28;20020;-76
2021/07/20 02:18:44;;;;;;;38.60;19.02;;;14.00;99.90;;;;;;5093783;28;20085;-76
2021/07/20 02:21:11;;;;;;;33.25;18.33;;;14.00;99.90;;;;;;5093651;28;20016;-76
2021/07/20 02:23:38;;;;;;;32.53;19.05;;;14.00;99.90;;;;;;5095947;28;20028;-76
2021/07/20 02:26:05;;;;;;;28.88;18.20;;;14.00;99.90;;;;;;5097351;28;20043;-76
2021/07/20 02:28:32;;;;;;;33.03;19.08;;;13.90;99.90;;;;;;5097565;28;20354;-76
2021/07/20 02:30:58;;;;;;;38.53;19.55;;;13.90;99.90;;;;;;5097292;28;20508;-76
2021/07/20 02:33:24;;;;;;;37.78;20.00;;;13.80;99.90;;;;;;5095978;28;20020;-76
2021/07/20 02:35:50;;;;;;;33.33;18.60;;;13.80;99.90;;;;;;5097485;28;20032;-76
2021/07/20 02:38:19;;;;;;;31.38;18.77;;;13.70;99.90;;;;;;5096574;28;20024;-76
2021/07/20 02:40:47;;;;;;;33.28;19.60;;;13.70;99.90;;;;;;5096849;28;20016;-75
2021/07/20 02:43:14;;;;;;;32.00;19.40;;;13.70;99.90;;;;;;5097091;28;20376;-76
2021/07/20 02:45:41;;;;;;;35.67;20.02;;;13.70;99.90;;;;;;5097029;28;20384;-76
2021/07/20 02:48:07;;;;;;;40.00;19.88;;;13.70;99.90;;;;;;5097264;28;20020;-76
2021/07/20 02:50:34;;;;;;;38.13;20.60;;;13.60;99.90;;;;;;5097226;28;20062;-76
2021/07/20 02:53:01;;;;;;;37.60;21.73;;;13.50;99.90;;;;;;5096860;28;20032;-75
2021/07/20 02:55:27;;;;;;;46.78;21.08;;;13.50;99.90;;;;;;5097115;28;20099;-76
2021/07/20 02:57:53;;;;;;;35.15;20.15;;;13.60;99.90;;;;;;5096977;28;20024;-76
2021/07/20 03:00:20;;;;;;;41.92;20.35;;;13.60;99.90;;;;;;5096772;28;20031;-76
2021/07/20 03:02:47;;;;;;;37.00;20.55;;;13.70;99.90;;;;;;5096930;28;20077;-76
2021/07/20 03:05:14;;;;;;;38.30;21.20;;;13.70;99.90;;;;;;5096653;28;20480;-76
2021/07/20 03:07:46;;;;;;;36.20;21.65;;;13.70;99.90;;;;;;5096892;28;20027;-76
2021/07/20 03:10:12;;;;;;;39.85;20.55;;;13.70;99.90;;;;;;5096563;28;20024;-76
2021/07/20 03:12:42;;;;;;;35.80;21.27;;;13.70;99.90;;;;;;5096225;28;20095;-76
2021/07/20 03:15:08;;;;;;;35.08;21.33;;;13.60;99.90;;;;;;5096181;28;20114;-76
2021/07/20 03:17:34;;;;;;;43.03;21.92;;;13.70;99.90;;;;;;5095241;28;20028;-76
2021/07/20 03:20:02;;;;;;;40.10;22.45;;;13.60;99.90;;;;;;5096545;28;20036;-75
2021/07/20 03:22:32;;;;;;;39.80;21.67;;;13.60;99.90;;;;;;5096022;28;20381;-76
2021/07/20 03:25:01;;;;;;;45.13;22.25;;;13.60;99.90;;;;;;5096555;28;20028;-76
2021/07/20 03:27:31;;;;;;;38.15;20.83;;;13.60;99.90;;;;;;5077767;28;20107;-76
2021/07/20 03:29:59;;;;;;;44.30;22.48;;;13.60;99.90;;;;;;5096137;28;20066;-75
2021/07/20 03:32:26;;;;;;;40.72;22.02;;;13.60;99.90;;;;;;5094228;28;20461;-76
2021/07/20 03:34:52;;;;;;;35.85;21.52;;;13.60;99.90;;;;;;5096082;28;20458;-77
2021/07/20 03:37:20;;;;;;;39.88;21.60;;;13.60;99.90;;;;;;5095088;28;20020;-76
2021/07/20 03:39:46;;;;;;;38.97;20.90;;;13.60;99.90;;;;;;5094392;28;20079;-77
2021/07/20 03:42:12;;;;;;;39.60;22.35;;;13.60;99.90;;;;;;5096218;28;20020;-76
2021/07/20 03:44:38;;;;;;;36.47;21.52;;;13.60;99.90;;;;;;5096168;28;20023;-76
2021/07/20 03:47:05;;;;;;;38.05;20.27;;;13.60;99.90;;;;;;5095788;28;20027;-76
2021/07/20 03:49:33;;;;;;;36.47;21.13;;;13.60;99.90;;;;;;5096048;28;20027;-76
2021/07/20 03:51:59;;;;;;;40.58;22.55;;;13.60;99.90;;;;;;5094841;28;20046;-77
2021/07/20 03:54:28;;;;;;;37.65;21.35;;;13.60;99.90;;;;;;5095950;28;20024;-76
2021/07/20 03:56:55;;;;;;;36.30;20.77;;;13.60;99.90;;;;;;5095634;28;20035;-76
2021/07/20 03:59:22;;;;;;;35.90;20.40;;;13.60;99.90;;;;;;5094060;28;20023;-77
2021/07/20 04:01:49;;;;;;;36.78;20.45;;;13.70;99.90;;;;;;5095808;28;20074;-76
2021/07/20 04:04:19;;;;;;;36.88;20.13;;;13.70;99.90;;;;;;5094277;28;20055;-76
2021/07/20 04:06:46;;;;;;;32.33;19.80;;;13.70;99.90;;;;;;5095746;28;20024;-76
2021/07/20 04:09:13;;;;;;;38.20;20.73;;;13.80;99.90;;;;;;5095426;28;20139;-76
2021/07/20 04:11:40;;;;;;;32.70;18.83;;;13.80;99.90;;;;;;5095353;28;20020;-76
2021/07/20 04:14:09;;;;;;;38.13;19.65;;;13.90;99.90;;;;;;5095628;28;20366;-76
2021/07/20 04:16:35;;;;;;;31.33;18.42;;;14.00;99.90;;;;;;5095012;28;20024;-76
2021/07/20 04:19:01;;;;;;;34.47;18.85;;;14.00;99.90;;;;;;5095387;28;20038;-76
2021/07/20 04:21:27;;;;;;;36.92;18.42;;;14.00;99.90;;;;;;5095107;28;20074;-76
2021/07/20 04:23:55;;;;;;;32.33;17.65;;;14.00;99.90;;;;;;5094220;28;20032;-76
2021/07/20 04:26:22;;;;;;;29.85;16.95;;;14.10;99.90;;;;;;5095089;28;20359;-76
2021/07/20 04:28:47;;;;;;;34.25;17.30;;;14.20;99.90;;;;;;5095274;28;20016;-76
2021/07/20 04:31:17;;;;;;;32.38;17.60;;;14.30;99.90;;;;;;5077359;28;20462;-76
2021/07/20 04:33:46;;;;;;;30.67;17.40;;;14.20;99.90;;;;;;5093776;28;20539;-76
2021/07/20 04:36:13;;;;;;;33.35;16.85;;;14.30;99.90;;;;;;5095179;28;20428;-76
2021/07/20 04:38:40;;;;;;;28.27;16.73;;;14.20;99.90;;;;;;5094743;28;20139;-76
2021/07/20 04:41:06;;;;;;;27.98;15.88;;;14.30;99.90;;;;;;5093250;28;20032;-76
2021/07/20 04:43:32;;;;;;;30.75;16.48;;;14.30;99.90;;;;;;5094045;28;20078;-76
2021/07/20 04:46:00;;;;;;;30.10;16.08;;;14.30;99.90;;;;;;5094405;28;20095;-76
2021/07/20 04:48:25;;;;;;;28.48;15.35;;;14.30;99.90;;;;;;5094401;28;20055;-76
2021/07/20 04:50:53;;;;;;;27.10;15.85;;;14.40;99.90;;;;;;5094957;28;20484;-76
2021/07/20 04:53:19;;;;;;;28.85;16.42;;;14.40;99.90;;;;;;5094880;28;20107;-77
2021/07/20 04:55:48;;;;;;;30.75;15.38;;;14.50;99.90;;;;;;5093327;28;20059;-76
2021/07/20 04:58:14;;;;;;;25.58;14.13;;;14.50;99.90;;;;;;5094708;28;20526;-77
2021/07/20 05:00:43;;;;;;;26.08;14.50;;;14.60;99.90;;;;;;5094721;28;20101;-76
2021/07/20 05:03:10;;;;;;;28.98;14.90;;;14.60;99.90;;;;;;5094147;28;20119;-76
2021/07/20 05:05:38;;;;;;;32.70;14.75;;;14.70;99.90;;;;;;5093444;28;20020;-76
2021/07/20 05:08:07;;;;;;;26.50;13.60;;;14.80;99.90;;;;;;5094602;28;20031;-76
2021/07/20 05:10:35;;;;;;;25.52;13.95;;;14.80;99.90;;;;;;5094009;28;20020;-76
2021/07/20 05:13:01;;;;;;;25.85;13.35;;;14.90;99.90;;;;;;5094284;28;20024;-76
2021/07/20 05:15:27;;;;;;;22.95;13.20;;;15.00;99.90;;;;;;5093923;28;20026;-76
2021/07/20 05:17:53;;;;;;;25.40;12.23;;;15.10;99.90;;;;;;5093905;28;20020;-76
2021/07/20 05:20:19;;;;;;;22.17;12.88;;;15.10;99.90;;;;;;5093310;28;20035;-77
2021/07/20 05:22:45;;;;;;;25.40;13.35;;;15.10;99.90;;;;;;5093364;28;20020;-76
2021/07/20 05:25:13;;;;;;;23.13;12.25;;;15.20;99.90;;;;;;5094061;28;20024;-76
2021/07/20 05:27:44;;;;;;;23.50;11.52;;;15.20;99.90;;;;;;5094299;28;20012;-76
2021/07/20 05:30:11;;;;;;;22.42;11.98;;;15.20;99.90;;;;;;5094284;28;20024;-76
2021/07/20 05:32:40;;;;;;;22.23;11.27;;;15.40;99.90;;;;;;5094266;28;20031;-77
2021/07/20 05:35:09;;;;;;;18.45;11.48;;;15.50;99.90;;;;;;5092788;28;20438;-76
2021/07/20 05:37:36;;;;;;;23.30;11.40;;;15.60;99.90;;;;;;5093050;28;20028;-76
2021/07/20 05:40:04;;;;;;;20.83;11.10;;;15.60;99.90;;;;;;5092106;28;20051;-76
2021/07/20 05:42:31;;;;;;;19.60;11.38;;;15.60;99.90;;;;;;5093916;28;20421;-76
2021/07/20 05:44:57;;;;;;;22.05;10.25;;;15.60;99.90;;;;;;5094105;28;20095;-76
2021/07/20 05:47:24;;;;;;;19.63;10.63;;;15.70;99.90;;;;;;5094091;28;20023;-76
2021/07/20 05:49:49;;;;;;;17.88;11.02;;;15.80;99.90;;;;;;5093752;28;20024;-76
2021/07/20 05:52:16;;;;;;;24.70;10.77;;;15.80;99.90;;;;;;5094039;28;20480;-76
2021/07/20 05:54:45;;;;;;;15.55;10.05;;;15.80;99.90;;;;;;5094943;28;20016;-76
2021/07/20 05:57:12;;;;;;;21.83;10.98;;;16.00;99.90;;;;;;5097965;28;20027;-77
2021/07/20 05:59:39;;;;;;;18.40;10.50;;;16.00;99.90;;;;;;5096568;28;20028;-76
2021/07/20 06:02:10;;;;;;;21.65;10.07;;;16.10;99.90;;;;;;5096306;28;20082;-76
2021/07/20 06:04:37;;;;;;;17.67;10.27;;;16.10;99.90;;;;;;5079835;28;20020;-76
2021/07/20 06:07:04;;;;;;;19.67;9.90;;;16.10;99.90;;;;;;5097330;28;20378;-76
2021/07/20 06:09:32;;;;;;;15.55;9.90;;;16.20;99.90;;;;;;5094314;28;20027;-76
2021/07/20 06:11:58;;;;;;;19.40;9.35;;;16.30;99.90;;;;;;5096835;28;20028;-77
2021/07/20 06:14:24;;;;;;;19.33;9.65;;;16.30;99.90;;;;;;5096932;28;20506;-77
2021/07/20 06:16:50;;;;;;;18.67;9.95;;;16.40;99.90;;;;;;5097375;28;20123;-77
2021/07/20 06:19:17;;;;;;;14.50;9.55;;;16.50;99.90;;;;;;5095725;28;20381;-77
2021/07/20 06:21:44;;;;;;;19.05;10.20;;;16.60;99.90;;;;;;5097041;28;20012;-76
2021/07/20 06:24:11;;;;;;;19.58;9.80;;;17.00;99.90;;;;;;5096461;28;20553;-76
2021/07/20 06:26:38;;;;;;;16.20;8.80;;;17.30;99.90;;;;;;5097351;28;20019;-77
2021/07/20 06:29:06;;;;;;;17.02;9.40;;;17.80;99.90;;;;;;5096988;28;20125;-77
2021/07/20 06:31:32;;;;;;;18.15;9.68;;;18.00;99.90;;;;;;5096319;28;20055;-77
2021/07/20 06:33:58;;;;;;;17.30;9.07;;;17.70;99.90;;;;;;5095305;28;20381;-77
2021/07/20 06:36:25;;;;;;;16.08;8.93;;;17.90;99.90;;;;;;5096489;28;20027;-77
2021/07/20 06:38:53;;;;;;;14.32;8.65;;;17.90;99.90;;;;;;5095384;28;20511;-77
2021/07/20 06:41:18;;;;;;;15.70;9.38;;;17.60;99.90;;;;;;5097024;28;20024;-77
2021/07/20 06:43:45;;;;;;;16.33;9.48;;;17.50;99.90;;;;;;5094591;28;20077;-77
2021/07/20 06:46:13;;;;;;;14.98;8.57;;;17.20;99.90;;;;;;5097288;28;20030;-77
2021/07/20 06:48:43;;;;;;;16.10;9.32;;;17.30;99.90;;;;;;5096959;28;20028;-77
2021/07/20 06:51:09;;;;;;;15.20;8.93;;;18.00;99.90;;;;;;5078495;28;20020;-77
2021/07/20 06:53:34;;;;;;;18.85;8.68;;;19.00;99.90;;;;;;5095266;28;20039;-77
2021/07/20 06:56:03;;;;;;;15.00;8.07;;;20.00;99.90;;;;;;5095840;28;20028;-77
2021/07/20 06:58:31;;;;;;;13.13;8.00;;;20.80;99.90;;;;;;5095442;28;20020;-77
2021/07/20 07:00:58;;;;;;;15.20;8.00;;;21.50;99.90;;;;;;5095105;28;20031;-75
2021/07/20 07:03:31;;;;;;;12.68;8.48;;;22.70;99.90;;;;;;5095029;28;20487;-75
2021/07/20 07:06:00;;;;;;;12.05;7.80;;;22.50;99.90;;;;;;5096067;28;20020;-76
2021/07/20 07:08:27;;;;;;;13.32;8.25;;;23.10;99.90;;;;;;5096464;28;20073;-77
2021/07/20 07:10:54;;;;;;;12.90;7.97;;;23.00;99.90;;;;;;5096425;28;20474;-76
2021/07/20 07:13:22;;;;;;;11.60;8.27;;;23.30;99.90;;;;;;5094787;28;20050;-78
2021/07/20 07:15:48;;;;;;;11.23;7.90;;;23.50;99.90;;;;;;5096846;28;20020;-77
2021/07/20 07:18:15;;;;;;;13.15;8.35;;;23.80;99.90;;;;;;5094631;28;20032;-77
2021/07/20 07:20:42;;;;;;;14.63;8.20;;;23.50;99.90;;;;;;5096492;28;20028;-77
2021/07/20 07:23:07;;;;;;;10.63;7.85;;;22.50;99.90;;;;;;5096201;28;20377;-76
2021/07/20 07:25:34;;;;;;;11.85;7.45;;;21.80;99.90;;;;;;5095610;28;20028;-76
2021/07/20 07:28:00;;;;;;;10.68;7.90;;;22.10;99.90;;;;;;5096409;28;20106;-77
2021/07/20 07:30:27;;;;;;;11.25;7.40;;;22.60;99.90;;;;;;5095286;28;20028;-76
2021/07/20 07:32:54;;;;;;;9.82;7.55;;;22.80;99.90;;;;;;5094582;28;20020;-76
2021/07/20 07:35:20;;;;;;;16.23;8.20;;;23.20;99.90;;;;;;5094022;28;20107;-75
2021/07/20 07:37:51;;;;;;;11.55;8.23;;;22.40;99.90;;;;;;5093097;28;20031;-75
2021/07/20 07:40:17;;;;;;;13.23;8.75;;;22.40;99.90;;;;;;5076612;28;20504;-75
2021/07/20 07:42:43;;;;;;;12.52;8.43;;;22.20;99.90;;;;;;5096086;28;20066;-75
2021/07/20 07:45:12;;;;;;;10.77;8.20;;;21.70;99.90;;;;;;5094253;28;20016;-75
2021/07/20 07:47:38;;;;;;;12.63;8.70;;;21.70;99.90;;;;;;5094685;28;20028;-75
2021/07/20 07:50:06;;;;;;;12.82;8.40;;;21.40;99.90;;;;;;5094945;28;20043;-75
2021/07/20 07:52:35;;;;;;;11.57;8.43;;;21.10;99.90;;;;;;5093134;28;20084;-74
2021/07/20 07:55:03;;;;;;;13.40;8.40;;;21.20;99.90;;;;;;5095164;28;20020;-75
2021/07/20 07:57:31;;;;;;;11.48;8.00;;;21.60;99.90;;;;;;5093843;28;20038;-75
2021/07/20 08:00:00;;;;;;;11.90;8.65;;;21.80;99.90;;;;;;5094849;28;20097;-75
2021/07/20 08:02:30;;;;;;;12.40;8.32;;;21.70;99.90;;;;;;5092946;28;20024;-75
2021/07/20 08:04:57;;;;;;;12.70;8.38;;;21.90;99.90;;;;;;5095261;28;20051;-75
2021/07/20 08:07:23;;;;;;;12.13;8.38;;;21.80;99.90;;;;;;5093708;28;20020;-75
2021/07/20 08:09:51;;;;;;;11.45;8.07;;;21.90;99.90;;;;;;5077212;28;20389;-75
2021/07/20 08:12:18;;;;;;;11.23;8.23;;;22.00;99.90;;;;;;5094772;28;20077;-75
2021/07/20 08:14:44;;;;;;;14.00;8.48;;;22.20;99.90;;;;;;5092069;28;20477;-75
2021/07/20 08:17:10;;;;;;;10.93;7.90;;;22.20;99.90;;;;;;5093553;28;20144;-75
2021/07/20 08:19:37;;;;;;;10.70;7.97;;;21.90;99.90;;;;;;5075791;28;20024;-75
2021/07/20 08:22:07;;;;;;;9.93;8.07;;;21.90;99.90;;;;;;5093234;28;20122;-77
2021/07/20 08:24:36;;;;;;;12.50;8.65;;;21.80;99.90;;;;;;5092579;28;20099;-74
2021/07/20 08:27:11;;;;;;;13.18;8.27;;;21.90;99.90;;;;;;5093009;28;20020;-74
2021/07/20 08:29:38;;;;;;;12.25;7.93;;;22.60;99.90;;;;;;5094051;28;20024;-74
2021/07/20 08:32:10;;;;;;;12.05;8.05;;;23.40;99.90;;;;;;5093318;28;20016;-74
2021/07/20 08:34:43;;;;;;;13.50;7.82;;;23.40;99.90;;;;;;5091657;28;20032;-75
2021/07/20 08:37:10;;;;;;;12.27;7.53;;;23.10;99.90;;;;;;5093034;28;20024;-76
2021/07/20 08:39:37;;;;;;;12.15;8.05;;;22.50;99.90;;;;;;5093323;28;20039;-76
2021/07/20 08:42:18;;;;;;;11.55;8.05;;;22.20;99.90;;;;;;5094093;28;20028;-76
2021/07/20 08:48:11;;;;;;;13.90;7.88;;;21.30;99.90;;;;;;5109574;27;20379;-75
2021/07/20 08:50:46;;;;;;;12.98;9.23;;;21.20;99.90;;;;;;5114605;28;20030;-75
2021/07/20 08:53:36;;;;;;;12.27;8.07;;;21.30;99.90;;;;;;5129677;27;20114;-75
2021/07/20 08:56:04;;;;;;;12.77;8.40;;;21.20;99.90;;;;;;5131677;27;20026;-75
2021/07/20 08:58:39;;;;;;;11.52;7.75;;;21.40;99.90;;;;;;5131179;27;20477;-75
2021/07/20 09:01:27;;;;;;;11.98;8.30;;;21.60;99.90;;;;;;5113839;27;20062;-75
2021/07/20 09:04:00;;;;;;;14.10;8.27;;;21.90;99.90;;;;;;5110129;28;20028;-74
2021/07/20 09:06:34;;;;;;;14.70;8.07;;;21.70;99.90;;;;;;5108011;28;20024;-75
2021/07/20 09:09:07;;;;;;;14.25;8.25;;;21.70;99.90;;;;;;5110595;28;20070;-75
2021/07/20 09:11:43;;;;;;;12.23;8.18;;;22.00;99.90;;;;;;5110211;28;20020;-75
2021/07/20 09:14:47;;;;;;;12.57;8.45;;;22.20;99.90;;;;;;5109446;28;20020;-75
2021/07/20 09:17:21;;;;;;;13.05;8.10;;;22.30;99.90;;;;;;5111125;28;20036;-75
2021/07/20 09:20:13;;;;;;;12.20;7.85;;;22.10;99.90;;;;;;5110822;28;20016;-75
2021/07/20 09:25:28;;;;;;;12.43;8.13;;;21.50;99.90;;;;;;5071111;28;20349;-76
2021/07/20 09:28:05;;;;;;;11.73;7.68;;;21.40;99.90;;;;;;5070004;28;20025;-76
2021/07/20 09:30:36;;;;;;;13.23;8.18;;;21.60;99.90;;;;;;5069951;28;20021;-76
2021/07/20 09:33:29;;;;;;;12.13;8.32;;;21.50;99.90;;;;;;5068251;28;20149;-76
2021/07/20 09:36:18;;;;;;;13.20;7.85;;;21.30;99.90;;;;;;5069669;28;20017;-76
2021/07/20 09:38:58;;;;;;;12.55;7.15;;;21.40;99.90;;;;;;5060676;28;20021;-76
2021/07/20 09:44:42;;;;;;;10.07;7.28;;;21.80;99.90;;;;;;5110931;27;20113;-74
2021/07/20 09:47:39;;;;;;;11.55;7.40;;;21.20;99.90;;;;;;5089715;28;20059;-74
2021/07/20 09:53:14;;;;;;;10.52;6.63;;;21.70;99.90;;;;;;5111271;27;20296;-76
2021/07/20 09:56:20;;;;;;;11.13;7.32;;;23.40;99.90;;;;;;5095190;28;20077;-77
2021/07/20 09:59:12;;;;;;;8.27;7.00;;;25.20;98.10;;;;;;5109960;28;20077;-76
2021/07/20 10:01:46;;;;;;;7.20;6.30;;;25.40;95.60;;;;;;5109448;28;20032;-77
2021/07/20 10:04:18;;;;;;;7.60;6.00;;;24.30;98.70;;;;;;5109563;28;20023;-76
2021/07/20 10:07:02;;;;;;;12.02;6.15;;;23.50;98.20;;;;;;5090963;28;20127;-76
2021/07/20 10:09:40;;;;;;;13.63;6.05;;;23.70;97.60;;;;;;5110743;28;20031;-76
2021/07/20 10:12:17;;;;;;;9.10;5.88;;;23.90;97.80;;;;;;5110956;28;20418;-76
2021/07/20 10:15:01;;;;;;;9.80;5.95;;;24.20;97.00;;;;;;5110165;28;20103;-77
2021/07/20 10:17:33;;;;;;;;;;;24.20;98.60;;;;;;5110141;28;20056;-76
2021/07/20 10:20:20;;;;;;;8.50;5.53;;;23.60;97.90;;;;;;5110355;28;19918;-76
2021/07/20 10:23:12;;;;;;;6.88;5.60;;;22.50;98.40;;;;;;5110789;28;20031;-76
2021/07/20 10:26:02;;;;;;;10.02;6.03;;;22.40;99.40;;;;;;5110587;28;20032;-76
2021/07/20 10:28:40;;;;;;;9.05;6.05;;;22.10;99.90;;;;;;5109224;28;20028;-76
2021/07/20 10:31:17;;;;;;;9.65;5.57;;;22.60;99.90;;;;;;5108727;28;20020;-77
2021/07/20 10:33:56;;;;;;;9.05;5.85;;;22.40;98.60;;;;;;5110117;28;20114;-77
2021/07/20 10:36:28;;;;;;;10.45;5.43;;;23.40;99.90;;;;;;5109685;28;20015;-77
2021/07/20 10:39:02;;;;;;;7.28;5.38;;;25.30;95.90;;;;;;5108826;28;20023;-77
2021/07/20 10:41:35;;;;;;;8.27;5.43;;;25.80;93.80;;;;;;5092330;28;20035;-77
2021/07/20 10:44:07;;;;;;;9.52;5.28;;;25.60;94.50;;;;;;5110347;28;20047;-77
2021/07/20 10:46:35;;;;;;;8.18;5.35;;;23.50;95.40;;;;;;5108122;28;20028;-77
2021/07/20 10:49:11;;;;;;;8.25;5.90;;;22.60;97.60;;;;;;5106834;28;20039;-76
2021/07/20 10:51:42;;;;;;;7.68;5.90;;;21.50;99.40;;;;;;5106262;28;20035;-76
2021/07/20 10:54:20;;;;;;;9.73;5.18;;;21.30;99.90;;;;;;5110494;28;20024;-76
2021/07/20 10:56:57;;;;;;;7.22;5.07;;;21.90;99.90;;;;;;5107634;28;20020;-77
2021/07/20 10:59:47;;;;;;;7.28;4.88;;;23.10;98.40;;;;;;5108376;28;20035;-77
2021/07/20 11:02:47;;;;;;;7.22;5.05;;;24.30;98.00;;;;;;5106854;28;20220;-77
2021/07/20 11:05:14;;;;;;;8.65;5.20;;;23.90;96.20;;;;;;5095433;28;20024;-77
2021/07/20 11:07:45;;;;;;;7.13;5.13;;;24.60;95.70;;;;;;5095928;28;20101;-77
2021/07/20 11:10:16;;;;;;;7.65;5.10;;;24.60;95.50;;;;;;5095494;28;20486;-76
2021/07/20 11:12:44;;;;;;;7.47;5.22;;;25.20;96.20;;;;;;5092066;28;20035;-77
2021/07/20 11:15:10;;;;;;;8.43;5.25;;;25.30;94.40;;;;;;5094835;28;20016;-77
2021/07/20 11:17:39;;;;;;;7.10;4.70;;;25.30;95.80;;;;;;5094231;28;20033;-77
2021/07/20 11:20:11;;;;;;;8.07;5.10;;;24.10;95.10;;;;;;5095599;28;20016;-77
2021/07/20 11:22:39;;;;;;;7.20;4.97;;;23.60;97.60;;;;;;5097475;28;20076;-77
2021/07/20 11:25:06;;;;;;;6.25;5.20;;;23.90;96.70;;;;;;5093601;28;20047;-77
2021/07/20 11:27:34;;;;;;;7.97;5.40;;;24.40;95.30;;;;;;5094640;28;20032;-76
2021/07/20 11:29:59;;;;;;;6.65;5.20;;;23.40;95.20;;;;;;5093545;28;20573;-77
2021/07/20 11:32:30;;;;;;;6.32;4.90;;;23.50;96.10;;;;;;5094977;28;20103;-76
2021/07/20 11:35:09;;;;;;;8.27;4.95;;;23.60;95.50;;;;;;5095308;28;20016;-77
2021/07/20 11:37:40;;;;;;;9.18;5.03;;;23.30;96.60;;;;;;5084164;28;20020;-76
2021/07/20 11:40:13;;;;;;;6.53;4.43;;;22.70;97.00;;;;;;5095254;28;20026;-77
2021/07/20 11:42:59;;;;;;;7.00;5.00;;;22.40;98.30;;;;;;5094050;28;20028;-77
2021/07/20 11:45:31;;;;;;;8.73;5.20;;;23.40;98.30;;;;;;5095600;28;20465;-76
2021/07/20 11:48:07;;;;;;;8.20;4.47;;;23.70;97.00;;;;;;5093609;28;20028;-76
2021/07/20 11:51:06;;;;;;;7.70;5.03;;;23.20;97.80;;;;;;5093375;28;20032;-76
2021/07/20 11:54:11;;;;;;;8.48;5.45;;;22.00;97.80;;;;;;5093968;28;20024;-76
2021/07/20 11:56:55;;;;;;;11.38;5.57;;;21.60;98.90;;;;;;5094197;28;20424;-76
2021/07/20 11:59:48;;;;;;;8.40;5.50;;;22.30;99.70;;;;;;5095190;28;20028;-76
2021/07/20 12:02:53;;;;;;;8.55;4.78;;;23.10;99.60;;;;;;5089153;28;20426;-76
2021/07/20 12:05:49;;;;;;;6.63;4.60;;;23.30;97.80;;;;;;5093555;28;20023;-76
2021/07/20 12:08:54;;;;;;;7.70;5.13;;;23.70;96.20;;;;;;5094711;28;20438;-76
2021/07/20 12:11:25;;;;;;;8.00;4.78;;;23.70;97.50;;;;;;5090320;28;20055;-76
2021/07/20 12:13:50;;;;;;;6.80;4.85;;;23.80;96.50;;;;;;5074252;28;20021;-76
2021/07/20 12:16:16;;;;;;;7.43;4.60;;;24.00;96.20;;;;;;5092493;28;20012;-76
2021/07/20 12:18:48;;;;;;;10.13;5.25;;;24.50;96.80;;;;;;5094755;28;20078;-76
2021/07/20 12:21:16;;;;;;;8.70;4.85;;;24.70;94.40;;;;;;5094898;28;20388;-76
2021/07/20 12:23:42;;;;;;;8.38;4.72;;;24.30;95.00;;;;;;5095049;28;20173;-77
2021/07/20 12:26:09;;;;;;;7.25;4.90;;;23.40;96.20;;;;;;5094185;28;20055;-76
2021/07/20 12:28:40;;;;;;;5.40;4.18;;;22.90;97.50;;;;;;5094074;28;20097;-76
2021/07/20 12:31:07;;;;;;;5.80;4.82;;;23.10;97.90;;;;;;5095741;28;20024;-77
2021/07/20 12:33:32;;;;;;;8.27;5.20;;;23.00;96.40;;;;;;5095466;28;20024;-76
2021/07/20 12:35:58;;;;;;;7.57;5.00;;;23.20;96.30;;;;;;5093202;28;20068;-76
2021/07/20 12:38:25;;;;;;;9.20;4.93;;;23.10;98.50;;;;;;5091260;28;20040;-77
2021/07/20 12:40:51;;;;;;;9.10;5.18;;;23.20;97.60;;;;;;5095049;28;20028;-76
2021/07/20 12:43:17;;;;;;;9.02;5.57;;;23.30;98.90;;;;;;5094788;28;20153;-78
2021/07/20 12:45:45;;;;;;;7.28;5.45;;;23.70;98.60;;;;;;5093160;28;20032;-77
2021/07/20 12:48:29;;;;;;;9.90;4.95;;;23.70;97.40;;;;;;5091344;28;20101;-77
2021/07/20 12:51:07;;;;;;;7.50;5.38;;;23.50;98.50;;;;;;5093878;28;20036;-77
2021/07/20 12:53:33;;;;;;;7.72;4.80;;;24.10;97.00;;;;;;5095323;28;20062;-76
2021/07/20 12:55:58;;;;;;;7.35;5.65;;;23.70;97.10;;;;;;5076328;28;20420;-76
2021/07/20 12:58:24;;;;;;;6.95;5.07;;;23.40;98.10;;;;;;5092728;28;20020;-76
2021/07/20 13:00:50;;;;;;;7.93;4.90;;;24.20;97.60;;;;;;5093240;28;20024;-76
2021/07/20 13:03:16;;;;;;;7.40;4.93;;;24.40;96.80;;;;;;5094349;28;20032;-76
2021/07/20 13:05:46;;;;;;;8.80;5.50;;;24.10;97.40;;;;;;5092880;28;20382;-76
2021/07/20 13:08:13;;;;;;;9.57;4.93;;;23.60;97.40;;;;;;5094609;28;20030;-76